sensor_id;sensor_type;location;lat;lon;timestamp;P1;durP1;ratioP1;P2;durP2;ratioP2
46983;SDS011;34732;52.112;9.366;2024-01-10T09:08:05;39.20;;;33.40;;
46983;SDS011;34732;52.112;9.366;2024-01-10T09:11:27;32.25;;;30.00;;
46983;SDS011;34732;52.112;9.366;2024-01-10T09:14:48;28.50;;;26.25;;
46983;SDS011;34732;52.112;9.366;2024-01-10T09:18:10;32.75;;;29.75;;
46983;SDS011;34732;52.112;9.366;2024-01-10T09:21:31;29.50;;;26.00;;
46983;SDS011;34732;52.112;9.366;2024-01-10T09:24:53;31.75;;;28.00;;
46983;SDS011;34732;52.112;9.366;2024-01-10T09:28:14;28.75;;;25.00;;
46983;SDS011;34732;52.112;9.366;2024-01-10T09:31:40;31.25;;;28.25;;
46983;SDS011;34732;52.112;9.366;2024-01-10T09:35:04;21.00;;;18.00;;
46983;SDS011;34732;52.112;9.366;2024-01-10T09:38:26;23.00;;;21.75;;
46983;SDS011;34732;52.112;9.366;2024-01-10T09:41:54;25.75;;;23.50;;
46983;SDS011;34732;52.112;9.366;2024-01-10T09:45:22;21.00;;;20.00;;
46983;SDS011;34732;52.112;9.366;2024-01-10T09:48:44;23.00;;;18.00;;
46983;SDS011;34732;52.112;9.366;2024-01-10T09:52:10;17.75;;;17.00;;
46983;SDS011;34732;52.112;9.366;2024-01-10T09:55:33;23.25;;;21.00;;
46983;SDS011;34732;52.112;9.366;2024-01-10T09:58:58;23.25;;;21.25;;
46983;SDS011;34732;52.112;9.366;2024-01-10T10:02:19;28.25;;;25.75;;
46983;SDS011;34732;52.112;9.366;2024-01-10T10:05:46;24.50;;;22.50;;
46983;SDS011;34732;52.112;9.366;2024-01-10T10:09:14;22.25;;;21.00;;
46983;SDS011;34732;52.112;9.366;2024-01-10T10:12:42;26.50;;;21.00;;
46983;SDS011;34732;52.112;9.366;2024-01-10T10:16:31;24.25;;;19.50;;
46983;SDS011;34732;52.112;9.366;2024-01-10T10:20:02;21.00;;;19.75;;
46983;SDS011;34732;52.112;9.366;2024-01-10T10:23:26;21.25;;;20.00;;
46983;SDS011;34732;52.112;9.366;2024-01-10T10:30:39;21.75;;;21.00;;
46983;SDS011;34732;52.112;9.366;2024-01-10T10:34:01;22.00;;;20.00;;
46983;SDS011;34732;52.112;9.366;2024-01-10T10:37:36;22.75;;;22.25;;
46983;SDS011;34732;52.112;9.366;2024-01-10T10:41:12;19.50;;;17.00;;
46983;SDS011;34732;52.112;9.366;2024-01-10T10:44:35;21.50;;;17.75;;
46983;SDS011;34732;52.112;9.366;2024-01-10T10:48:00;18.50;;;16.75;;
46983;SDS011;34732;52.112;9.366;2024-01-10T10:51:27;13.50;;;13.25;;
46983;SDS011;34732;52.112;9.366;2024-01-10T10:54:56;19.25;;;17.25;;
46983;SDS011;34732;52.112;9.366;2024-01-10T10:58:21;19.25;;;16.25;;
46983;SDS011;34732;52.112;9.366;2024-01-10T11:01:46;20.25;;;18.25;;
46983;SDS011;34732;52.112;9.366;2024-01-10T11:05:10;15.75;;;15.75;;
46983;SDS011;34732;52.112;9.366;2024-01-10T11:09:00;16.75;;;16.75;;
46983;SDS011;34732;52.112;9.366;2024-01-10T11:12:38;10.00;;;8.25;;
46983;SDS011;34732;52.112;9.366;2024-01-10T11:23:56;18.25;;;18.25;;
46983;SDS011;34732;52.112;9.366;2024-01-10T11:27:24;15.50;;;15.25;;
46983;SDS011;34732;52.112;9.366;2024-01-10T11:39:23;21.00;;;16.50;;
46983;SDS011;34732;52.112;9.366;2024-01-10T11:47:00;13.25;;;10.00;;
46983;SDS011;34732;52.112;9.366;2024-01-10T11:50:29;16.75;;;13.50;;
46983;SDS011;34732;52.112;9.366;2024-01-10T11:53:58;19.00;;;15.50;;
46983;SDS011;34732;52.112;9.366;2024-01-10T11:57:22;13.50;;;12.25;;
46983;SDS011;34732;52.112;9.366;2024-01-10T12:00:49;18.50;;;15.50;;
46983;SDS011;34732;52.112;9.366;2024-01-10T12:08:36;15.00;;;15.00;;
46983;SDS011;34732;52.112;9.366;2024-01-10T12:11:57;15.00;;;13.75;;
46983;SDS011;34732;52.112;9.366;2024-01-10T12:15:24;13.50;;;13.00;;
46983;SDS011;34732;52.112;9.366;2024-01-10T12:18:50;13.50;;;12.75;;
46983;SDS011;34732;52.112;9.366;2024-01-10T12:22:14;15.25;;;13.75;;
46983;SDS011;34732;52.112;9.366;2024-01-10T12:25:39;18.25;;;16.75;;
46983;SDS011;34732;52.112;9.366;2024-01-10T12:29:03;12.25;;;11.25;;
46983;SDS011;34732;52.112;9.366;2024-01-10T12:32:49;18.25;;;16.25;;
46983;SDS011;34732;52.112;9.366;2024-01-10T12:36:13;14.75;;;14.25;;
46983;SDS011;34732;52.112;9.366;2024-01-10T12:39:37;13.25;;;11.75;;
46983;SDS011;34732;52.112;9.366;2024-01-10T12:43:04;14.00;;;14.00;;
46983;SDS011;34732;52.112;9.366;2024-01-10T12:46:26;15.50;;;14.75;;
46983;SDS011;34732;52.112;9.366;2024-01-10T12:49:47;13.50;;;11.75;;
46983;SDS011;34732;52.112;9.366;2024-01-10T12:53:14;13.50;;;12.50;;
46983;SDS011;34732;52.112;9.366;2024-01-10T13:09:24;16.00;;;15.00;;
46983;SDS011;34732;52.112;9.366;2024-01-10T13:12:52;10.50;;;10.25;;
46983;SDS011;34732;52.112;9.366;2024-01-10T13:16:18;13.75;;;13.75;;
46983;SDS011;34732;52.112;9.366;2024-01-10T13:19:42;14.75;;;13.50;;
46983;SDS011;34732;52.112;9.366;2024-01-10T13:23:17;14.50;;;13.00;;
46983;SDS011;34732;52.112;9.366;2024-01-10T13:26:41;9.75;;;8.75;;
46983;SDS011;34732;52.112;9.366;2024-01-10T13:30:03;16.00;;;14.25;;
46983;SDS011;34732;52.112;9.366;2024-01-10T13:33:27;15.50;;;15.25;;
46983;SDS011;34732;52.112;9.366;2024-01-10T13:36:53;15.00;;;13.25;;
46983;SDS011;34732;52.112;9.366;2024-01-10T13:40:21;17.75;;;16.75;;
46983;SDS011;34732;52.112;9.366;2024-01-10T13:43:48;16.25;;;14.50;;
46983;SDS011;34732;52.112;9.366;2024-01-10T13:47:11;14.75;;;13.50;;
46983;SDS011;34732;52.112;9.366;2024-01-10T13:50:35;14.75;;;12.75;;
46983;SDS011;34732;52.112;9.366;2024-01-10T13:53:59;15.25;;;12.75;;
46983;SDS011;34732;52.112;9.366;2024-01-10T13:57:20;16.75;;;14.25;;
46983;SDS011;34732;52.112;9.366;2024-01-10T14:00:48;16.00;;;14.75;;
46983;SDS011;34732;52.112;9.366;2024-01-10T14:04:12;13.00;;;11.00;;
46983;SDS011;34732;52.112;9.366;2024-01-10T14:07:41;12.25;;;10.00;;
46983;SDS011;34732;52.112;9.366;2024-01-10T14:11:05;10.00;;;9.00;;
46983;SDS011;34732;52.112;9.366;2024-01-10T14:14:29;13.75;;;13.25;;
46983;SDS011;34732;52.112;9.366;2024-01-10T14:17:52;14.75;;;14.75;;
46983;SDS011;34732;52.112;9.366;2024-01-10T14:21:16;15.75;;;14.75;;
46983;SDS011;34732;52.112;9.366;2024-01-10T14:24:40;14.00;;;13.25;;
46983;SDS011;34732;52.112;9.366;2024-01-10T14:28:01;13.75;;;12.75;;
46983;SDS011;34732;52.112;9.366;2024-01-10T14:31:25;12.75;;;12.75;;
46983;SDS011;34732;52.112;9.366;2024-01-10T14:34:51;14.50;;;14.50;;
46983;SDS011;34732;52.112;9.366;2024-01-10T14:38:22;16.25;;;15.00;;
46983;SDS011;34732;52.112;9.366;2024-01-10T14:41:45;13.25;;;11.75;;
46983;SDS011;34732;52.112;9.366;2024-01-10T14:45:09;14.75;;;14.00;;
46983;SDS011;34732;52.112;9.366;2024-01-10T14:48:47;16.00;;;13.50;;
46983;SDS011;34732;52.112;9.366;2024-01-10T14:52:19;15.00;;;13.25;;
46983;SDS011;34732;52.112;9.366;2024-01-10T14:55:45;13.75;;;13.00;;
46983;SDS011;34732;52.112;9.366;2024-01-10T14:59:06;16.00;;;14.25;;
46983;SDS011;34732;52.112;9.366;2024-01-10T15:02:33;15.75;;;14.25;;
46983;SDS011;34732;52.112;9.366;2024-01-10T15:05:57;12.50;;;12.50;;
46983;SDS011;34732;52.112;9.366;2024-01-10T15:09:30;14.25;;;14.25;;
46983;SDS011;34732;52.112;9.366;2024-01-10T15:12:54;14.25;;;13.25;;
46983;SDS011;34732;52.112;9.366;2024-01-10T15:16:18;14.50;;;14.50;;
46983;SDS011;34732;52.112;9.366;2024-01-10T15:19:41;18.50;;;16.00;;
46983;SDS011;34732;52.112;9.366;2024-01-10T15:23:14;13.50;;;12.50;;
46983;SDS011;34732;52.112;9.366;2024-01-10T15:26:41;15.00;;;14.50;;
46983;SDS011;34732;52.112;9.366;2024-01-10T15:30:05;15.25;;;13.75;;
46983;SDS011;34732;52.112;9.366;2024-01-10T15:33:33;15.75;;;14.50;;
46983;SDS011;34732;52.112;9.366;2024-01-10T15:37:02;12.25;;;10.50;;
46983;SDS011;34732;52.112;9.366;2024-01-10T15:40:28;15.00;;;14.00;;
46983;SDS011;34732;52.112;9.366;2024-01-10T15:43:54;13.50;;;12.75;;
46983;SDS011;34732;52.112;9.366;2024-01-10T15:47:23;17.00;;;15.50;;
46983;SDS011;34732;52.112;9.366;2024-01-10T15:50:46;14.25;;;13.25;;
46983;SDS011;34732;52.112;9.366;2024-01-10T15:54:07;15.25;;;15.25;;
46983;SDS011;34732;52.112;9.366;2024-01-10T15:57:31;15.00;;;13.50;;
46983;SDS011;34732;52.112;9.366;2024-01-10T16:00:57;14.50;;;13.00;;
46983;SDS011;34732;52.112;9.366;2024-01-10T16:04:24;17.50;;;16.00;;
46983;SDS011;34732;52.112;9.366;2024-01-10T16:07:48;18.25;;;16.00;;
46983;SDS011;34732;52.112;9.366;2024-01-10T16:11:10;13.50;;;12.00;;
46983;SDS011;34732;52.112;9.366;2024-01-10T16:14:36;12.67;;;12.33;;
46983;SDS011;34732;52.112;9.366;2024-01-10T16:18:00;12.75;;;12.50;;
46983;SDS011;34732;52.112;9.366;2024-01-10T16:21:21;20.50;;;16.50;;
46983;SDS011;34732;52.112;9.366;2024-01-10T16:24:42;11.00;;;11.00;;
46983;SDS011;34732;52.112;9.366;2024-01-10T16:36:40;14.25;;;14.00;;
46983;SDS011;34732;52.112;9.366;2024-01-10T16:40:05;11.00;;;10.25;;
46983;SDS011;34732;52.112;9.366;2024-01-10T16:43:29;15.25;;;14.50;;
46983;SDS011;34732;52.112;9.366;2024-01-10T16:46:53;12.50;;;12.25;;
46983;SDS011;34732;52.112;9.366;2024-01-10T16:50:19;16.00;;;14.50;;
46983;SDS011;34732;52.112;9.366;2024-01-10T16:53:45;14.50;;;13.25;;
46983;SDS011;34732;52.112;9.366;2024-01-10T17:01:36;10.75;;;9.75;;
46983;SDS011;34732;52.112;9.366;2024-01-10T17:04:57;13.75;;;13.50;;
46983;SDS011;34732;52.112;9.366;2024-01-10T17:08:28;16.75;;;16.25;;
46983;SDS011;34732;52.112;9.366;2024-01-10T17:11:54;16.25;;;14.75;;
46983;SDS011;34732;52.112;9.366;2024-01-10T17:15:18;17.25;;;16.00;;
46983;SDS011;34732;52.112;9.366;2024-01-10T17:18:42;19.25;;;17.25;;
46983;SDS011;34732;52.112;9.366;2024-01-10T17:22:05;15.00;;;13.50;;
46983;SDS011;34732;52.112;9.366;2024-01-10T17:25:29;12.50;;;11.00;;
46983;SDS011;34732;52.112;9.366;2024-01-10T17:28:52;15.75;;;14.75;;
46983;SDS011;34732;52.112;9.366;2024-01-10T17:32:13;14.50;;;13.00;;
46983;SDS011;34732;52.112;9.366;2024-01-10T17:35:35;19.00;;;17.25;;
46983;SDS011;34732;52.112;9.366;2024-01-10T17:43:23;16.00;;;15.25;;
46983;SDS011;34732;52.112;9.366;2024-01-10T17:46:49;17.50;;;16.00;;
46983;SDS011;34732;52.112;9.366;2024-01-10T17:50:15;17.75;;;15.50;;
46983;SDS011;34732;52.112;9.366;2024-01-10T17:53:48;15.25;;;14.00;;
46983;SDS011;34732;52.112;9.366;2024-01-10T17:57:12;14.00;;;13.50;;
46983;SDS011;34732;52.112;9.366;2024-01-10T18:00:44;15.25;;;13.50;;
46983;SDS011;34732;52.112;9.366;2024-01-10T18:04:08;17.50;;;17.25;;
46983;SDS011;34732;52.112;9.366;2024-01-10T18:07:44;12.00;;;11.00;;
46983;SDS011;34732;52.112;9.366;2024-01-10T18:11:11;13.75;;;12.75;;
46983;SDS011;34732;52.112;9.366;2024-01-10T18:14:35;14.50;;;14.00;;
46983;SDS011;34732;52.112;9.366;2024-01-10T18:17:58;18.25;;;17.50;;
46983;SDS011;34732;52.112;9.366;2024-01-10T18:21:22;17.00;;;15.75;;
46983;SDS011;34732;52.112;9.366;2024-01-10T18:24:46;15.25;;;12.75;;
46983;SDS011;34732;52.112;9.366;2024-01-10T18:28:09;16.75;;;16.75;;
46983;SDS011;34732;52.112;9.366;2024-01-10T18:31:35;16.25;;;15.25;;
46983;SDS011;34732;52.112;9.366;2024-01-10T18:34:56;15.00;;;14.50;;
46983;SDS011;34732;52.112;9.366;2024-01-10T18:38:22;15.25;;;14.75;;
46983;SDS011;34732;52.112;9.366;2024-01-10T18:41:45;18.00;;;17.50;;
46983;SDS011;34732;52.112;9.366;2024-01-10T18:45:09;15.75;;;15.75;;
46983;SDS011;34732;52.112;9.366;2024-01-10T18:48:33;15.00;;;14.75;;
46983;SDS011;34732;52.112;9.366;2024-01-10T18:52:01;18.75;;;16.00;;
46983;SDS011;34732;52.112;9.366;2024-01-10T18:55:42;14.00;;;12.25;;
46983;SDS011;34732;52.112;9.366;2024-01-10T18:59:06;16.25;;;15.00;;
46983;SDS011;34732;52.112;9.366;2024-01-10T19:02:30;16.25;;;15.25;;
46983;SDS011;34732;52.112;9.366;2024-01-10T19:05:51;16.75;;;16.00;;
46983;SDS011;34732;52.112;9.366;2024-01-10T19:09:13;22.00;;;18.00;;
46983;SDS011;34732;52.112;9.366;2024-01-10T19:12:37;19.75;;;18.50;;
46983;SDS011;34732;52.112;9.366;2024-01-10T19:16:00;15.50;;;14.50;;
46983;SDS011;34732;52.112;9.366;2024-01-10T19:19:29;12.50;;;11.50;;
46983;SDS011;34732;52.112;9.366;2024-01-10T19:22:51;18.75;;;14.50;;
46983;SDS011;34732;52.112;9.366;2024-01-10T19:26:26;21.50;;;20.00;;
46983;SDS011;34732;52.112;9.366;2024-01-10T19:29:48;21.25;;;20.00;;
46983;SDS011;34732;52.112;9.366;2024-01-10T19:33:16;16.33;;;15.33;;
46983;SDS011;34732;52.112;9.366;2024-01-10T19:36:40;16.75;;;15.75;;
46983;SDS011;34732;52.112;9.366;2024-01-10T19:40:01;23.00;;;20.00;;
46983;SDS011;34732;52.112;9.366;2024-01-10T19:43:23;18.50;;;18.25;;
46983;SDS011;34732;52.112;9.366;2024-01-10T19:46:50;18.75;;;17.75;;
46983;SDS011;34732;52.112;9.366;2024-01-10T19:50:15;18.00;;;17.75;;
46983;SDS011;34732;52.112;9.366;2024-01-10T19:53:37;15.75;;;15.25;;
46983;SDS011;34732;52.112;9.366;2024-01-10T20:00:44;20.75;;;19.75;;
46983;SDS011;34732;52.112;9.366;2024-01-10T20:04:05;22.50;;;19.00;;
46983;SDS011;34732;52.112;9.366;2024-01-10T20:07:29;16.25;;;16.25;;
46983;SDS011;34732;52.112;9.366;2024-01-10T20:10:55;11.00;;;7.50;;
46983;SDS011;34732;52.112;9.366;2024-01-10T20:14:17;21.50;;;20.75;;
46983;SDS011;34732;52.112;9.366;2024-01-10T20:17:40;22.50;;;19.50;;
